sensor_id;sensor_type;location;lat;lon;timestamp;P1;durP1;ratioP1;P2;durP2;ratioP2
19137;SDS011;68178;52.188;5.598;2023-03-03T00:00:10;53.78;;;30.70;;
19137;SDS011;68178;52.188;5.598;2023-03-03T00:02:36;49.58;;;30.23;;
19137;SDS011;68178;52.188;5.598;2023-03-03T00:05:02;51.25;;;28.95;;
19137;SDS011;68178;52.188;5.598;2023-03-03T00:07:28;51.22;;;30.63;;
19137;SDS011;68178;52.188;5.598;2023-03-03T00:09:54;49.53;;;27.70;;
19137;SDS011;68178;52.188;5.598;2023-03-03T00:13:06;46.05;;;27.58;;
19137;SDS011;68178;52.188;5.598;2023-03-03T00:15:16;45.47;;;25.67;;
19137;SDS011;68178;52.188;5.598;2023-03-03T00:17:43;40.10;;;24.23;;
19137;SDS011;68178;52.188;5.598;2023-03-03T00:20:24;46.17;;;25.65;;
19137;SDS011;68178;52.188;5.598;2023-03-03T00:22:51;47.65;;;27.08;;
19137;SDS011;68178;52.188;5.598;2023-03-03T00:25:26;46.85;;;26.42;;
19137;SDS011;68178;52.188;5.598;2023-03-03T00:27:53;43.85;;;25.73;;
19137;SDS011;68178;52.188;5.598;2023-03-03T00:30:23;44.08;;;25.90;;
19137;SDS011;68178;52.188;5.598;2023-03-03T00:32:50;48.70;;;27.30;;
19137;SDS011;68178;52.188;5.598;2023-03-03T00:35:22;47.47;;;26.98;;
19137;SDS011;68178;52.188;5.598;2023-03-03T00:37:50;44.38;;;26.23;;
19137;SDS011;68178;52.188;5.598;2023-03-03T00:40:21;50.95;;;28.65;;
19137;SDS011;68178;52.188;5.598;2023-03-03T00:42:49;51.80;;;27.08;;
19137;SDS011;68178;52.188;5.598;2023-03-03T00:45:17;48.78;;;27.75;;
19137;SDS011;68178;52.188;5.598;2023-03-03T00:47:48;49.15;;;28.08;;
19137;SDS011;68178;52.188;5.598;2023-03-03T00:50:24;44.65;;;25.98;;
19137;SDS011;68178;52.188;5.598;2023-03-03T00:52:57;48.47;;;27.90;;
19137;SDS011;68178;52.188;5.598;2023-03-03T00:55:24;43.28;;;24.52;;
19137;SDS011;68178;52.188;5.598;2023-03-03T00:57:51;51.45;;;28.30;;
19137;SDS011;68178;52.188;5.598;2023-03-03T01:00:17;47.10;;;26.85;;
19137;SDS011;68178;52.188;5.598;2023-03-03T01:02:43;51.83;;;27.88;;
19137;SDS011;68178;52.188;5.598;2023-03-03T01:05:11;47.50;;;26.55;;
19137;SDS011;68178;52.188;5.598;2023-03-03T01:07:37;48.03;;;27.10;;
19137;SDS011;68178;52.188;5.598;2023-03-03T01:10:03;49.58;;;27.42;;
19137;SDS011;68178;52.188;5.598;2023-03-03T01:12:30;50.65;;;27.42;;
19137;SDS011;68178;52.188;5.598;2023-03-03T01:14:56;45.63;;;26.63;;
19137;SDS011;68178;52.188;5.598;2023-03-03T01:17:22;44.17;;;26.50;;
19137;SDS011;68178;52.188;5.598;2023-03-03T01:19:48;47.00;;;26.15;;
19137;SDS011;68178;52.188;5.598;2023-03-03T01:22:14;46.08;;;26.52;;
19137;SDS011;68178;52.188;5.598;2023-03-03T01:24:40;49.53;;;27.15;;
19137;SDS011;68178;52.188;5.598;2023-03-03T01:27:06;49.53;;;25.70;;
19137;SDS011;68178;52.188;5.598;2023-03-03T01:29:33;43.53;;;25.98;;
19137;SDS011;68178;52.188;5.598;2023-03-03T01:31:59;47.90;;;26.50;;
19137;SDS011;68178;52.188;5.598;2023-03-03T01:34:25;50.03;;;27.45;;
19137;SDS011;68178;52.188;5.598;2023-03-03T01:36:51;49.33;;;27.02;;
19137;SDS011;68178;52.188;5.598;2023-03-03T01:39:17;46.28;;;25.80;;
19137;SDS011;68178;52.188;5.598;2023-03-03T01:41:42;40.53;;;23.30;;
19137;SDS011;68178;52.188;5.598;2023-03-03T01:44:17;38.92;;;22.35;;
19137;SDS011;68178;52.188;5.598;2023-03-03T01:46:45;40.75;;;22.77;;
19137;SDS011;68178;52.188;5.598;2023-03-03T01:49:34;42.60;;;21.95;;
19137;SDS011;68178;52.188;5.598;2023-03-03T01:52:00;42.22;;;23.48;;
19137;SDS011;68178;52.188;5.598;2023-03-03T01:54:28;38.92;;;22.35;;
19137;SDS011;68178;52.188;5.598;2023-03-03T01:56:57;39.88;;;22.05;;
19137;SDS011;68178;52.188;5.598;2023-03-03T01:59:25;39.50;;;21.98;;
19137;SDS011;68178;52.188;5.598;2023-03-03T02:01:53;39.97;;;22.48;;
19137;SDS011;68178;52.188;5.598;2023-03-03T02:04:19;41.92;;;22.90;;
19137;SDS011;68178;52.188;5.598;2023-03-03T02:06:49;41.72;;;21.90;;
19137;SDS011;68178;52.188;5.598;2023-03-03T02:09:30;43.72;;;23.80;;
19137;SDS011;68178;52.188;5.598;2023-03-03T02:11:58;43.95;;;22.88;;
19137;SDS011;68178;52.188;5.598;2023-03-03T02:14:24;43.72;;;23.73;;
19137;SDS011;68178;52.188;5.598;2023-03-03T02:16:50;45.35;;;24.05;;
19137;SDS011;68178;52.188;5.598;2023-03-03T02:19:30;44.95;;;22.95;;
19137;SDS011;68178;52.188;5.598;2023-03-03T02:21:58;48.13;;;25.30;;
19137;SDS011;68178;52.188;5.598;2023-03-03T02:24:32;42.90;;;24.00;;
19137;SDS011;68178;52.188;5.598;2023-03-03T02:26:59;47.10;;;23.58;;
19137;SDS011;68178;52.188;5.598;2023-03-03T02:29:25;46.00;;;21.70;;
19137;SDS011;68178;52.188;5.598;2023-03-03T02:31:52;43.22;;;22.88;;
19137;SDS011;68178;52.188;5.598;2023-03-03T02:34:18;41.33;;;22.10;;
19137;SDS011;68178;52.188;5.598;2023-03-03T02:36:44;43.22;;;23.13;;
19137;SDS011;68178;52.188;5.598;2023-03-03T02:39:21;42.35;;;22.20;;
19137;SDS011;68178;52.188;5.598;2023-03-03T02:44:20;40.47;;;22.20;;
19137;SDS011;68178;52.188;5.598;2023-03-03T02:46:47;39.78;;;21.60;;
19137;SDS011;68178;52.188;5.598;2023-03-03T02:49:15;40.05;;;20.30;;
19137;SDS011;68178;52.188;5.598;2023-03-03T02:51:42;40.08;;;20.98;;
19137;SDS011;68178;52.188;5.598;2023-03-03T02:54:08;39.78;;;22.05;;
19137;SDS011;68178;52.188;5.598;2023-03-03T02:56:35;38.95;;;20.05;;
19137;SDS011;68178;52.188;5.598;2023-03-03T02:59:02;42.20;;;21.67;;
19137;SDS011;68178;52.188;5.598;2023-03-03T03:01:28;41.78;;;23.58;;
19137;SDS011;68178;52.188;5.598;2023-03-03T03:03:56;41.20;;;22.17;;
19137;SDS011;68178;52.188;5.598;2023-03-03T03:06:22;42.97;;;22.95;;
19137;SDS011;68178;52.188;5.598;2023-03-03T03:08:48;41.88;;;22.55;;
19137;SDS011;68178;52.188;5.598;2023-03-03T03:11:14;48.67;;;23.50;;
19137;SDS011;68178;52.188;5.598;2023-03-03T03:13:40;38.72;;;22.63;;
19137;SDS011;68178;52.188;5.598;2023-03-03T03:16:06;47.15;;;23.98;;
19137;SDS011;68178;52.188;5.598;2023-03-03T03:18:32;44.40;;;22.10;;
19137;SDS011;68178;52.188;5.598;2023-03-03T03:21:04;39.05;;;21.00;;
19137;SDS011;68178;52.188;5.598;2023-03-03T03:23:30;40.70;;;21.02;;
19137;SDS011;68178;52.188;5.598;2023-03-03T03:25:56;39.15;;;21.92;;
19137;SDS011;68178;52.188;5.598;2023-03-03T03:28:22;39.75;;;21.85;;
19137;SDS011;68178;52.188;5.598;2023-03-03T03:30:49;40.47;;;21.25;;
19137;SDS011;68178;52.188;5.598;2023-03-03T03:33:16;40.78;;;21.38;;
19137;SDS011;68178;52.188;5.598;2023-03-03T03:35:41;41.78;;;21.90;;
19137;SDS011;68178;52.188;5.598;2023-03-03T03:38:11;45.17;;;24.42;;
19137;SDS011;68178;52.188;5.598;2023-03-03T03:40:37;40.70;;;20.50;;
19137;SDS011;68178;52.188;5.598;2023-03-03T03:43:03;42.58;;;21.85;;
19137;SDS011;68178;52.188;5.598;2023-03-03T03:45:29;46.00;;;22.95;;
19137;SDS011;68178;52.188;5.598;2023-03-03T03:47:55;45.53;;;23.25;;
19137;SDS011;68178;52.188;5.598;2023-03-03T03:50:21;43.22;;;23.02;;
19137;SDS011;68178;52.188;5.598;2023-03-03T03:52:47;44.58;;;23.73;;
19137;SDS011;68178;52.188;5.598;2023-03-03T03:55:13;50.03;;;23.52;;
19137;SDS011;68178;52.188;5.598;2023-03-03T03:57:39;47.80;;;23.23;;
19137;SDS011;68178;52.188;5.598;2023-03-03T04:00:05;45.65;;;23.35;;
19137;SDS011;68178;52.188;5.598;2023-03-03T04:02:32;46.55;;;22.35;;
19137;SDS011;68178;52.188;5.598;2023-03-03T04:04:59;51.45;;;24.80;;
19137;SDS011;68178;52.188;5.598;2023-03-03T04:07:25;47.90;;;23.67;;
19137;SDS011;68178;52.188;5.598;2023-03-03T04:09:51;43.63;;;23.17;;
19137;SDS011;68178;52.188;5.598;2023-03-03T04:12:17;47.75;;;23.52;;
19137;SDS011;68178;52.188;5.598;2023-03-03T04:14:43;40.67;;;21.92;;
19137;SDS011;68178;52.188;5.598;2023-03-03T04:17:15;47.70;;;23.85;;
19137;SDS011;68178;52.188;5.598;2023-03-03T04:19:41;43.70;;;22.92;;
19137;SDS011;68178;52.188;5.598;2023-03-03T04:22:07;46.13;;;23.48;;
19137;SDS011;68178;52.188;5.598;2023-03-03T04:24:33;47.28;;;23.42;;
19137;SDS011;68178;52.188;5.598;2023-03-03T04:26:59;48.45;;;24.52;;
19137;SDS011;68178;52.188;5.598;2023-03-03T04:29:25;46.35;;;22.95;;
19137;SDS011;68178;52.188;5.598;2023-03-03T04:31:52;41.10;;;22.35;;
19137;SDS011;68178;52.188;5.598;2023-03-03T04:34:18;45.42;;;22.90;;
19137;SDS011;68178;52.188;5.598;2023-03-03T04:36:46;48.10;;;23.30;;
19137;SDS011;68178;52.188;5.598;2023-03-03T04:39:12;48.08;;;22.98;;
19137;SDS011;68178;52.188;5.598;2023-03-03T04:41:38;48.63;;;24.75;;
19137;SDS011;68178;52.188;5.598;2023-03-03T04:44:04;47.00;;;22.85;;
19137;SDS011;68178;52.188;5.598;2023-03-03T04:46:30;47.10;;;22.02;;
19137;SDS011;68178;52.188;5.598;2023-03-03T04:48:56;41.03;;;21.45;;
19137;SDS011;68178;52.188;5.598;2023-03-03T04:51:22;45.92;;;22.10;;
19137;SDS011;68178;52.188;5.598;2023-03-03T04:53:48;49.53;;;21.90;;
19137;SDS011;68178;52.188;5.598;2023-03-03T04:56:14;45.72;;;21.35;;
19137;SDS011;68178;52.188;5.598;2023-03-03T04:58:40;44.53;;;22.00;;
19137;SDS011;68178;52.188;5.598;2023-03-03T05:01:06;45.03;;;21.27;;
19137;SDS011;68178;52.188;5.598;2023-03-03T05:03:32;44.92;;;20.33;;
19137;SDS011;68178;52.188;5.598;2023-03-03T05:05:58;46.17;;;20.92;;
19137;SDS011;68178;52.188;5.598;2023-03-03T05:08:24;39.78;;;20.02;;
19137;SDS011;68178;52.188;5.598;2023-03-03T05:10:50;48.42;;;21.15;;
19137;SDS011;68178;52.188;5.598;2023-03-03T05:13:17;41.60;;;19.65;;
19137;SDS011;68178;52.188;5.598;2023-03-03T05:15:57;37.60;;;19.35;;
19137;SDS011;68178;52.188;5.598;2023-03-03T05:18:24;43.63;;;18.58;;
19137;SDS011;68178;52.188;5.598;2023-03-03T05:20:50;43.45;;;19.80;;
19137;SDS011;68178;52.188;5.598;2023-03-03T05:23:17;41.78;;;17.80;;
19137;SDS011;68178;52.188;5.598;2023-03-03T05:25:43;43.72;;;18.83;;
19137;SDS011;68178;52.188;5.598;2023-03-03T05:28:09;41.70;;;19.23;;
19137;SDS011;68178;52.188;5.598;2023-03-03T05:30:35;48.65;;;18.65;;
19137;SDS011;68178;52.188;5.598;2023-03-03T05:33:02;51.92;;;20.13;;
19137;SDS011;68178;52.188;5.598;2023-03-03T05:35:28;50.45;;;19.70;;
19137;SDS011;68178;52.188;5.598;2023-03-03T05:37:54;40.15;;;18.65;;
19137;SDS011;68178;52.188;5.598;2023-03-03T05:40:22;55.60;;;20.08;;
19137;SDS011;68178;52.188;5.598;2023-03-03T05:42:48;44.97;;;20.27;;
19137;SDS011;68178;52.188;5.598;2023-03-03T05:45:14;46.53;;;20.48;;
19137;SDS011;68178;52.188;5.598;2023-03-03T05:47:40;42.88;;;19.50;;
19137;SDS011;68178;52.188;5.598;2023-03-03T05:50:06;46.63;;;20.02;;
19137;SDS011;68178;52.188;5.598;2023-03-03T05:52:32;49.33;;;21.30;;
19137;SDS011;68178;52.188;5.598;2023-03-03T05:54:58;43.30;;;18.98;;
19137;SDS011;68178;52.188;5.598;2023-03-03T05:57:24;45.38;;;20.23;;
19137;SDS011;68178;52.188;5.598;2023-03-03T05:59:50;48.22;;;21.73;;
19137;SDS011;68178;52.188;5.598;2023-03-03T06:02:16;53.92;;;20.35;;
19137;SDS011;68178;52.188;5.598;2023-03-03T06:04:42;49.45;;;20.05;;
19137;SDS011;68178;52.188;5.598;2023-03-03T06:07:08;53.13;;;22.05;;
19137;SDS011;68178;52.188;5.598;2023-03-03T06:09:34;53.38;;;21.35;;
19137;SDS011;68178;52.188;5.598;2023-03-03T06:12:00;48.33;;;20.83;;
19137;SDS011;68178;52.188;5.598;2023-03-03T06:14:26;55.88;;;21.95;;
19137;SDS011;68178;52.188;5.598;2023-03-03T06:16:52;51.17;;;21.27;;
19137;SDS011;68178;52.188;5.598;2023-03-03T06:19:18;51.13;;;21.20;;
19137;SDS011;68178;52.188;5.598;2023-03-03T06:21:45;53.55;;;21.67;;
19137;SDS011;68178;52.188;5.598;2023-03-03T06:24:11;52.20;;;21.73;;
19137;SDS011;68178;52.188;5.598;2023-03-03T06:26:36;48.78;;;22.73;;
19137;SDS011;68178;52.188;5.598;2023-03-03T06:29:02;55.25;;;21.67;;
19137;SDS011;68178;52.188;5.598;2023-03-03T06:31:28;44.60;;;19.40;;
19137;SDS011;68178;52.188;5.598;2023-03-03T06:33:54;55.97;;;22.60;;
19137;SDS011;68178;52.188;5.598;2023-03-03T06:36:20;54.72;;;22.23;;
19137;SDS011;68178;52.188;5.598;2023-03-03T06:38:47;53.00;;;20.70;;
19137;SDS011;68178;52.188;5.598;2023-03-03T06:41:13;62.60;;;22.95;;
19137;SDS011;68178;52.188;5.598;2023-03-03T06:43:39;69.95;;;23.33;;
19137;SDS011;68178;52.188;5.598;2023-03-03T06:46:05;50.28;;;20.42;;
19137;SDS011;68178;52.188;5.598;2023-03-03T06:48:31;54.05;;;21.67;;
19137;SDS011;68178;52.188;5.598;2023-03-03T06:50:58;46.13;;;19.20;;
19137;SDS011;68178;52.188;5.598;2023-03-03T06:53:24;47.17;;;20.10;;
19137;SDS011;68178;52.188;5.598;2023-03-03T06:55:51;49.35;;;21.75;;
19137;SDS011;68178;52.188;5.598;2023-03-03T06:58:18;52.75;;;20.00;;
19137;SDS011;68178;52.188;5.598;2023-03-03T07:00:45;45.00;;;19.33;;
19137;SDS011;68178;52.188;5.598;2023-03-03T07:03:15;41.78;;;18.60;;
19137;SDS011;68178;52.188;5.598;2023-03-03T07:05:42;37.25;;;17.45;;
19137;SDS011;68178;52.188;5.598;2023-03-03T07:08:12;41.65;;;17.98;;
19137;SDS011;68178;52.188;5.598;2023-03-03T07:10:39;40.95;;;19.15;;
19137;SDS011;68178;52.188;5.598;2023-03-03T07:13:14;44.72;;;17.92;;
19137;SDS011;68178;52.188;5.598;2023-03-03T07:15:41;43.72;;;18.75;;
19137;SDS011;68178;52.188;5.598;2023-03-03T07:20:53;43.13;;;18.13;;
19137;SDS011;68178;52.188;5.598;2023-03-03T07:23:20;34.33;;;15.70;;
19137;SDS011;68178;52.188;5.598;2023-03-03T07:25:48;32.55;;;16.40;;
19137;SDS011;68178;52.188;5.598;2023-03-03T07:30:40;30.38;;;15.68;;
19137;SDS011;68178;52.188;5.598;2023-03-03T07:33:07;35.65;;;16.73;;
19137;SDS011;68178;52.188;5.598;2023-03-03T07:35:43;33.33;;;16.73;;
19137;SDS011;68178;52.188;5.598;2023-03-03T07:40:59;32.55;;;15.30;;
19137;SDS011;68178;52.188;5.598;2023-03-03T07:43:28;30.40;;;14.45;;
19137;SDS011;68178;52.188;5.598;2023-03-03T07:45:56;33.13;;;14.43;;
19137;SDS011;68178;52.188;5.598;2023-03-03T07:48:29;27.67;;;13.65;;
19137;SDS011;68178;52.188;5.598;2023-03-03T07:50:57;34.70;;;14.95;;
19137;SDS011;68178;52.188;5.598;2023-03-03T07:53:28;28.38;;;13.95;;
19137;SDS011;68178;52.188;5.598;2023-03-03T07:55:58;33.72;;;17.80;;
19137;SDS011;68178;52.188;5.598;2023-03-03T07:58:38;32.75;;;14.50;;
19137;SDS011;68178;52.188;5.598;2023-03-03T08:01:25;28.55;;;13.50;;
19137;SDS011;68178;52.188;5.598;2023-03-03T08:03:56;34.90;;;16.23;;
19137;SDS011;68178;52.188;5.598;2023-03-03T08:08:48;31.15;;;14.85;;
19137;SDS011;68178;52.188;5.598;2023-03-03T08:11:14;31.88;;;15.38;;
19137;SDS011;68178;52.188;5.598;2023-03-03T08:13:40;28.40;;;14.68;;
19137;SDS011;68178;52.188;5.598;2023-03-03T08:18:37;27.92;;;14.82;;
19137;SDS011;68178;52.188;5.598;2023-03-03T08:23:29;29.85;;;14.75;;
19137;SDS011;68178;52.188;5.598;2023-03-03T08:25:55;28.20;;;13.32;;
19137;SDS011;68178;52.188;5.598;2023-03-03T08:28:21;24.27;;;12.98;;
19137;SDS011;68178;52.188;5.598;2023-03-03T08:30:48;23.63;;;12.60;;
19137;SDS011;68178;52.188;5.598;2023-03-03T08:33:14;26.67;;;13.15;;
19137;SDS011;68178;52.188;5.598;2023-03-03T08:35:41;21.67;;;11.75;;
19137;SDS011;68178;52.188;5.598;2023-03-03T08:38:07;28.92;;;14.45;;
19137;SDS011;68178;52.188;5.598;2023-03-03T08:40:34;25.55;;;13.20;;
19137;SDS011;68178;52.188;5.598;2023-03-03T08:43:00;25.77;;;12.05;;
19137;SDS011;68178;52.188;5.598;2023-03-03T08:45:26;25.50;;;13.52;;
19137;SDS011;68178;52.188;5.598;2023-03-03T08:47:52;22.80;;;12.30;;
19137;SDS011;68178;52.188;5.598;2023-03-03T08:50:18;17.38;;;10.23;;
19137;SDS011;68178;52.188;5.598;2023-03-03T08:52:45;19.95;;;11.25;;
19137;SDS011;68178;52.188;5.598;2023-03-03T08:55:11;23.90;;;11.20;;
19137;SDS011;68178;52.188;5.598;2023-03-03T08:57:37;18.77;;;11.02;;
19137;SDS011;68178;52.188;5.598;2023-03-03T09:00:05;18.73;;;11.60;;
19137;SDS011;68178;52.188;5.598;2023-03-03T09:02:31;20.83;;;10.75;;
19137;SDS011;68178;52.188;5.598;2023-03-03T09:04:57;21.45;;;11.45;;
19137;SDS011;68178;52.188;5.598;2023-03-03T09:07:23;21.58;;;11.27;;
19137;SDS011;68178;52.188;5.598;2023-03-03T09:09:49;21.65;;;12.57;;
19137;SDS011;68178;52.188;5.598;2023-03-03T09:12:16;21.20;;;11.70;;
19137;SDS011;68178;52.188;5.598;2023-03-03T09:14:42;22.55;;;10.73;;
19137;SDS011;68178;52.188;5.598;2023-03-03T09:17:41;20.42;;;11.27;;
19137;SDS011;68178;52.188;5.598;2023-03-03T09:21:01;25.58;;;12.85;;
19137;SDS011;68178;52.188;5.598;2023-03-03T09:22:57;23.35;;;11.35;;
19137;SDS011;68178;52.188;5.598;2023-03-03T09:25:33;21.40;;;11.55;;
19137;SDS011;68178;52.188;5.598;2023-03-03T09:28:00;22.95;;;11.88;;
19137;SDS011;68178;52.188;5.598;2023-03-03T09:32:52;21.98;;;11.90;;
19137;SDS011;68178;52.188;5.598;2023-03-03T09:35:32;22.10;;;10.13;;
19137;SDS011;68178;52.188;5.598;2023-03-03T09:43:23;21.33;;;10.80;;
19137;SDS011;68178;52.188;5.598;2023-03-03T09:48:37;20.73;;;10.85;;
19137;SDS011;68178;52.188;5.598;2023-03-03T09:54:10;18.77;;;10.00;;
19137;SDS011;68178;52.188;5.598;2023-03-03T09:56:40;16.38;;;8.95;;
19137;SDS011;68178;52.188;5.598;2023-03-03T09:59:18;16.30;;;9.20;;
19137;SDS011;68178;52.188;5.598;2023-03-03T10:04:40;17.38;;;9.73;;
19137;SDS011;68178;52.188;5.598;2023-03-03T10:09:54;16.20;;;9.18;;
19137;SDS011;68178;52.188;5.598;2023-03-03T10:14:53;18.00;;;9.80;;
19137;SDS011;68178;52.188;5.598;2023-03-03T10:17:23;17.67;;;9.80;;
19137;SDS011;68178;52.188;5.598;2023-03-03T10:20:11;16.20;;;9.25;;
19137;SDS011;68178;52.188;5.598;2023-03-03T10:22:54;13.40;;;7.70;;
19137;SDS011;68178;52.188;5.598;2023-03-03T10:25:25;11.57;;;6.63;;
19137;SDS011;68178;52.188;5.598;2023-03-03T10:30:35;12.60;;;6.90;;
19137;SDS011;68178;52.188;5.598;2023-03-03T10:38:36;9.82;;;5.80;;
19137;SDS011;68178;52.188;5.598;2023-03-03T10:43:44;11.05;;;6.10;;
19137;SDS011;68178;52.188;5.598;2023-03-03T11:02:01;3.80;;;3.40;;
19137;SDS011;68178;52.188;5.598;2023-03-03T11:07:05;5.13;;;3.05;;
19137;SDS011;68178;52.188;5.598;2023-03-03T11:09:43;4.82;;;3.28;;
19137;SDS011;68178;52.188;5.598;2023-03-03T11:12:20;4.63;;;2.88;;
19137;SDS011;68178;52.188;5.598;2023-03-03T11:14:53;5.85;;;3.20;;
19137;SDS011;68178;52.188;5.598;2023-03-03T11:17:31;4.30;;;3.25;;
19137;SDS011;68178;52.188;5.598;2023-03-03T11:20:06;6.65;;;3.50;;
19137;SDS011;68178;52.188;5.598;2023-03-03T11:30:47;5.57;;;3.13;;
19137;SDS011;68178;52.188;5.598;2023-03-03T11:35:44;6.28;;;3.85;;
19137;SDS011;68178;52.188;5.598;2023-03-03T11:38:24;5.93;;;3.70;;
19137;SDS011;68178;52.188;5.598;2023-03-03T11:40:56;4.18;;;3.22;;
19137;SDS011;68178;52.188;5.598;2023-03-03T11:44:09;5.57;;;3.42;;
19137;SDS011;68178;52.188;5.598;2023-03-03T11:56:22;4.50;;;2.40;;
19137;SDS011;68178;52.188;5.598;2023-03-03T11:58:53;2.78;;;1.63;;
19137;SDS011;68178;52.188;5.598;2023-03-03T12:07:01;1.50;;;1.00;;
19137;SDS011;68178;52.188;5.598;2023-03-03T12:09:33;1.85;;;0.93;;
19137;SDS011;68178;52.188;5.598;2023-03-03T12:12:15;1.75;;;1.10;;
19137;SDS011;68178;52.188;5.598;2023-03-03T12:20:11;1.95;;;1.40;;
19137;SDS011;68178;52.188;5.598;2023-03-03T12:25:22;2.40;;;1.08;;
19137;SDS011;68178;52.188;5.598;2023-03-03T12:33:15;4.35;;;2.53;;
19137;SDS011;68178;52.188;5.598;2023-03-03T12:36:02;3.20;;;1.95;;
19137;SDS011;68178;52.188;5.598;2023-03-03T12:38:34;2.63;;;1.48;;
19137;SDS011;68178;52.188;5.598;2023-03-03T12:48:48;3.90;;;2.13;;
19137;SDS011;68178;52.188;5.598;2023-03-03T12:56:12;3.10;;;1.85;;
19137;SDS011;68178;52.188;5.598;2023-03-03T13:01:12;2.75;;;1.65;;
19137;SDS011;68178;52.188;5.598;2023-03-03T13:03:52;2.40;;;1.83;;
19137;SDS011;68178;52.188;5.598;2023-03-03T13:11:35;3.17;;;1.85;;
19137;SDS011;68178;52.188;5.598;2023-03-03T13:14:14;3.10;;;2.03;;
19137;SDS011;68178;52.188;5.598;2023-03-03T13:16:43;4.88;;;2.20;;
19137;SDS011;68178;52.188;5.598;2023-03-03T13:19:16;2.13;;;1.30;;
19137;SDS011;68178;52.188;5.598;2023-03-03T13:21:52;2.00;;;1.15;;
19137;SDS011;68178;52.188;5.598;2023-03-03T13:24:22;2.05;;;1.42;;
19137;SDS011;68178;52.188;5.598;2023-03-03T13:30:35;4.15;;;1.70;;
19137;SDS011;68178;52.188;5.598;2023-03-03T13:32:34;3.92;;;2.15;;
19137;SDS011;68178;52.188;5.598;2023-03-03T13:35:15;3.25;;;2.10;;
19137;SDS011;68178;52.188;5.598;2023-03-03T13:37:45;7.45;;;2.50;;
19137;SDS011;68178;52.188;5.598;2023-03-03T13:40:16;3.40;;;1.92;;
19137;SDS011;68178;52.188;5.598;2023-03-03T13:45:55;7.00;;;2.15;;
19137;SDS011;68178;52.188;5.598;2023-03-03T13:50:52;4.28;;;2.45;;
19137;SDS011;68178;52.188;5.598;2023-03-03T13:53:29;3.90;;;2.20;;
19137;SDS011;68178;52.188;5.598;2023-03-03T13:58:24;3.97;;;2.53;;
19137;SDS011;68178;52.188;5.598;2023-03-03T14:03:36;5.68;;;2.72;;
19137;SDS011;68178;52.188;5.598;2023-03-03T14:11:44;3.38;;;2.38;;
19137;SDS011;68178;52.188;5.598;2023-03-03T14:17:01;4.72;;;2.38;;
19137;SDS011;68178;52.188;5.598;2023-03-03T14:19:31;6.85;;;2.35;;
19137;SDS011;68178;52.188;5.598;2023-03-03T14:22:11;3.25;;;2.20;;
19137;SDS011;68178;52.188;5.598;2023-03-03T14:27:26;2.75;;;2.33;;
19137;SDS011;68178;52.188;5.598;2023-03-03T14:29:53;2.10;;;1.88;;
19137;SDS011;68178;52.188;5.598;2023-03-03T14:32:20;5.25;;;2.72;;
19137;SDS011;68178;52.188;5.598;2023-03-03T14:34:46;4.43;;;2.58;;
19137;SDS011;68178;52.188;5.598;2023-03-03T14:37:22;4.07;;;2.13;;
19137;SDS011;68178;52.188;5.598;2023-03-03T14:45:28;2.80;;;1.90;;
19137;SDS011;68178;52.188;5.598;2023-03-03T14:47:55;1.83;;;1.33;;
19137;SDS011;68178;52.188;5.598;2023-03-03T14:50:31;4.50;;;1.73;;
19137;SDS011;68178;52.188;5.598;2023-03-03T14:55:43;3.65;;;1.05;;
19137;SDS011;68178;52.188;5.598;2023-03-03T15:03:47;3.45;;;1.23;;
19137;SDS011;68178;52.188;5.598;2023-03-03T15:06:27;2.25;;;1.02;;
19137;SDS011;68178;52.188;5.598;2023-03-03T15:08:53;3.65;;;1.30;;
19137;SDS011;68178;52.188;5.598;2023-03-03T15:11:26;1.63;;;1.50;;
19137;SDS011;68178;52.188;5.598;2023-03-03T15:13:52;2.15;;;1.00;;
19137;SDS011;68178;52.188;5.598;2023-03-03T15:16:31;2.25;;;1.08;;
19137;SDS011;68178;52.188;5.598;2023-03-03T15:19:09;3.10;;;1.20;;
19137;SDS011;68178;52.188;5.598;2023-03-03T15:21:41;2.17;;;1.10;;
19137;SDS011;68178;52.188;5.598;2023-03-03T15:24:24;4.30;;;1.23;;
19137;SDS011;68178;52.188;5.598;2023-03-03T15:26:54;2.97;;;1.17;;
19137;SDS011;68178;52.188;5.598;2023-03-03T15:44:21;2.58;;;0.73;;
19137;SDS011;68178;52.188;5.598;2023-03-03T15:50:17;1.40;;;0.63;;
19137;SDS011;68178;52.188;5.598;2023-03-03T15:52:23;1.02;;;0.50;;
19137;SDS011;68178;52.188;5.598;2023-03-03T15:54:53;3.10;;;0.52;;
19137;SDS011;68178;52.188;5.598;2023-03-03T16:02:19;4.07;;;1.38;;
19137;SDS011;68178;52.188;5.598;2023-03-03T16:04:54;2.35;;;0.90;;
19137;SDS011;68178;52.188;5.598;2023-03-03T16:09:53;3.40;;;0.73;;
19137;SDS011;68178;52.188;5.598;2023-03-03T16:32:35;3.88;;;1.05;;
19137;SDS011;68178;52.188;5.598;2023-03-03T16:35:13;3.58;;;0.85;;
19137;SDS011;68178;52.188;5.598;2023-03-03T16:37:47;3.17;;;1.15;;
19137;SDS011;68178;52.188;5.598;2023-03-03T16:42:48;5.00;;;1.33;;
19137;SDS011;68178;52.188;5.598;2023-03-03T16:45:33;8.60;;;2.72;;
19137;SDS011;68178;52.188;5.598;2023-03-03T16:48:12;8.90;;;3.75;;
19137;SDS011;68178;52.188;5.598;2023-03-03T17:01:07;13.50;;;6.32;;
19137;SDS011;68178;52.188;5.598;2023-03-03T17:03:47;8.02;;;3.10;;
19137;SDS011;68178;52.188;5.598;2023-03-03T17:06:58;11.68;;;2.60;;
19137;SDS011;68178;52.188;5.598;2023-03-03T17:11:34;8.65;;;3.90;;
19137;SDS011;68178;52.188;5.598;2023-03-03T17:16:51;14.05;;;5.25;;
19137;SDS011;68178;52.188;5.598;2023-03-03T17:22:11;10.48;;;4.53;;
19137;SDS011;68178;52.188;5.598;2023-03-03T17:27:11;10.65;;;2.80;;
19137;SDS011;68178;52.188;5.598;2023-03-03T17:29:43;8.77;;;2.40;;
19137;SDS011;68178;52.188;5.598;2023-03-03T17:35:03;6.72;;;3.58;;
19137;SDS011;68178;52.188;5.598;2023-03-03T17:37:48;12.85;;;4.18;;
19137;SDS011;68178;52.188;5.598;2023-03-03T17:43:02;12.80;;;2.33;;
19137;SDS011;68178;52.188;5.598;2023-03-03T17:45:33;13.15;;;3.58;;
19137;SDS011;68178;52.188;5.598;2023-03-03T17:55:46;9.30;;;3.20;;
19137;SDS011;68178;52.188;5.598;2023-03-03T18:03:43;15.48;;;3.40;;
19137;SDS011;68178;52.188;5.598;2023-03-03T18:11:40;21.90;;;4.65;;
19137;SDS011;68178;52.188;5.598;2023-03-03T18:24:34;14.02;;;3.42;;
19137;SDS011;68178;52.188;5.598;2023-03-03T18:35:35;14.02;;;3.05;;
19137;SDS011;68178;52.188;5.598;2023-03-03T18:40:55;14.63;;;2.70;;
19137;SDS011;68178;52.188;5.598;2023-03-03T18:48:53;12.52;;;2.78;;
19137;SDS011;68178;52.188;5.598;2023-03-03T19:07:29;14.02;;;3.35;;
19137;SDS011;68178;52.188;5.598;2023-03-03T19:12:50;18.40;;;2.92;;
19137;SDS011;68178;52.188;5.598;2023-03-03T19:18:02;17.52;;;3.33;;
19137;SDS011;68178;52.188;5.598;2023-03-03T19:20:45;17.17;;;2.67;;
19137;SDS011;68178;52.188;5.598;2023-03-03T19:23:16;14.98;;;3.55;;
19137;SDS011;68178;52.188;5.598;2023-03-03T19:25:43;15.07;;;2.67;;
19137;SDS011;68178;52.188;5.598;2023-03-03T19:31:05;15.82;;;2.60;;
19137;SDS011;68178;52.188;5.598;2023-03-03T19:33:39;14.48;;;2.90;;
19137;SDS011;68178;52.188;5.598;2023-03-03T19:36:28;13.52;;;2.65;;
19137;SDS011;68178;52.188;5.598;2023-03-03T19:39:05;15.45;;;2.83;;
19137;SDS011;68178;52.188;5.598;2023-03-03T19:44:25;14.85;;;3.17;;
19137;SDS011;68178;52.188;5.598;2023-03-03T19:46:57;14.27;;;2.45;;
19137;SDS011;68178;52.188;5.598;2023-03-03T19:49:45;18.23;;;2.85;;
19137;SDS011;68178;52.188;5.598;2023-03-03T19:57:28;21.02;;;3.28;;
19137;SDS011;68178;52.188;5.598;2023-03-03T20:00:04;25.25;;;3.28;;
19137;SDS011;68178;52.188;5.598;2023-03-03T20:02:47;14.70;;;2.45;;